createdAt,value
2018-06-27T00:00:27.294Z,0.00
2018-06-27T00:01:27.514Z,0.00
2018-06-27T00:02:27.741Z,0.00
2018-06-27T00:03:27.966Z,0.00
2018-06-27T00:04:28.196Z,0.00
2018-06-27T00:05:28.426Z,0.00
2018-06-27T00:06:28.659Z,0.00
2018-06-27T00:07:28.883Z,0.00
2018-06-27T00:08:29.112Z,0.00
2018-06-27T00:09:29.340Z,0.00
2018-06-27T00:10:29.572Z,0.00
2018-06-27T00:11:29.796Z,0.00
2018-06-27T00:12:30.033Z,0.00
2018-06-27T00:13:30.253Z,0.00
2018-06-27T00:14:30.484Z,0.00
2018-06-27T00:15:30.707Z,0.00
2018-06-27T00:16:30.936Z,0.00
2018-06-27T00:17:31.171Z,0.00
2018-06-27T00:18:31.402Z,0.00
2018-06-27T00:19:31.620Z,0.00
2018-06-27T00:20:31.850Z,0.00
2018-06-27T00:21:32.108Z,0.00
2018-06-27T00:22:32.305Z,0.00
2018-06-27T00:23:32.515Z,0.00
2018-06-27T00:24:32.745Z,0.00
2018-06-27T00:25:32.971Z,0.00
2018-06-27T00:26:33.199Z,0.00
2018-06-27T00:27:33.427Z,0.00
2018-06-27T00:28:33.655Z,0.00
2018-06-27T00:29:33.885Z,0.00
2018-06-27T00:30:34.113Z,0.00
2018-06-27T00:31:34.355Z,0.00
2018-06-27T00:32:34.574Z,0.00
2018-06-27T00:33:34.803Z,0.00
2018-06-27T00:34:35.026Z,0.00
2018-06-27T00:35:35.260Z,0.00
2018-06-27T00:36:35.482Z,0.00
2018-06-27T00:37:35.715Z,0.00
2018-06-27T00:38:35.941Z,0.00
2018-06-27T00:39:36.172Z,0.00
2018-06-27T00:40:36.397Z,0.00
2018-06-27T00:41:36.629Z,0.00
2018-06-27T00:42:36.859Z,0.00
2018-06-27T00:43:37.095Z,0.00
2018-06-27T00:44:37.314Z,0.00
2018-06-27T00:45:37.541Z,0.00
2018-06-27T00:46:37.767Z,0.00
2018-06-27T00:47:37.999Z,0.00
2018-06-27T00:48:38.228Z,0.00
2018-06-27T00:49:38.468Z,0.00
2018-06-27T00:50:38.684Z,0.00
2018-06-27T00:51:38.910Z,0.00
2018-06-27T00:52:39.143Z,0.00
2018-06-27T00:53:39.373Z,0.00
2018-06-27T00:54:39.602Z,0.00
2018-06-27T00:55:39.842Z,0.00
2018-06-27T00:56:40.053Z,0.00
2018-06-27T00:57:40.293Z,0.00
2018-06-27T00:58:40.504Z,0.00
2018-06-27T00:59:40.743Z,0.00
2018-06-27T01:00:40.964Z,0.00
2018-06-27T01:01:41.193Z,0.00
2018-06-27T01:02:41.423Z,0.00
2018-06-27T01:03:41.644Z,0.00
2018-06-27T01:04:41.871Z,0.00
2018-06-27T01:05:42.104Z,0.00
2018-06-27T01:06:42.337Z,0.00
2018-06-27T01:07:42.569Z,0.00
2018-06-27T01:08:42.791Z,0.00
2018-06-27T01:09:43.015Z,0.00
2018-06-27T01:10:43.340Z,0.00
2018-06-27T01:11:43.478Z,0.00
2018-06-27T01:12:43.702Z,0.00
2018-06-27T01:13:43.931Z,0.00
2018-06-27T01:14:44.159Z,0.00
2018-06-27T01:15:44.382Z,0.00
2018-06-27T01:16:44.624Z,0.00
2018-06-27T01:17:44.849Z,0.00
2018-06-27T01:18:45.078Z,0.00
2018-06-27T01:19:45.310Z,0.00
2018-06-27T01:20:45.538Z,0.00
2018-06-27T01:21:45.768Z,0.00
2018-06-27T01:22:45.996Z,0.00
2018-06-27T01:23:46.227Z,0.00
2018-06-27T01:24:46.456Z,0.00
2018-06-27T01:25:46.693Z,0.00
2018-06-27T01:26:46.909Z,0.00
2018-06-27T01:27:47.142Z,0.00
2018-06-27T01:28:47.372Z,0.00
2018-06-27T01:29:47.602Z,0.00
2018-06-27T01:30:47.828Z,0.00
2018-06-27T01:31:48.057Z,0.00
2018-06-27T01:32:48.296Z,0.00
2018-06-27T01:33:48.519Z,0.00
2018-06-27T01:34:48.744Z,0.00
2018-06-27T01:35:48.972Z,0.00
2018-06-27T01:36:49.202Z,0.00
2018-06-27T01:37:49.427Z,0.00
2018-06-27T01:38:49.651Z,0.00
2018-06-27T01:39:49.881Z,0.00
2018-06-27T01:40:50.145Z,0.00
2018-06-27T01:41:50.342Z,0.00
2018-06-27T01:42:50.571Z,0.00
2018-06-27T01:43:50.796Z,0.00
2018-06-27T01:44:51.025Z,0.00
2018-06-27T01:45:51.256Z,0.00
2018-06-27T01:46:51.481Z,0.00
2018-06-27T01:47:51.711Z,0.00
2018-06-27T01:48:51.939Z,0.00
2018-06-27T01:49:52.168Z,0.00
2018-06-27T01:50:52.392Z,0.00
2018-06-27T01:51:52.622Z,0.00
2018-06-27T01:52:52.850Z,0.00
2018-06-27T01:53:53.080Z,0.00
2018-06-27T01:54:53.311Z,0.00
2018-06-27T01:55:53.543Z,0.00
2018-06-27T01:56:53.768Z,0.00
2018-06-27T01:57:54.007Z,0.00
2018-06-27T01:58:54.239Z,0.00
2018-06-27T01:59:54.469Z,0.00
2018-06-27T02:00:54.699Z,0.00
2018-06-27T02:01:54.929Z,0.00
2018-06-27T02:02:55.159Z,0.00
2018-06-27T02:03:55.388Z,0.00
2018-06-27T02:04:55.612Z,0.00
2018-06-27T02:05:55.830Z,0.00
2018-06-27T02:06:56.056Z,0.00
2018-06-27T02:07:56.279Z,0.00
2018-06-27T02:08:56.507Z,0.00
2018-06-27T02:09:56.739Z,0.00
2018-06-27T02:10:56.968Z,0.00
2018-06-27T02:11:57.199Z,0.00
2018-06-27T02:12:57.426Z,0.00
2018-06-27T02:13:57.656Z,0.00
2018-06-27T02:14:57.885Z,0.00
2018-06-27T02:15:58.118Z,0.00
2018-06-27T02:16:58.344Z,0.00
2018-06-27T02:17:58.577Z,0.00
2018-06-27T02:18:58.805Z,0.00
2018-06-27T02:19:59.033Z,0.00
2018-06-27T02:20:59.263Z,0.00
2018-06-27T02:21:59.493Z,0.00
2018-06-27T02:22:59.724Z,0.00
2018-06-27T02:23:59.953Z,0.00
2018-06-27T02:25:00.183Z,0.00
2018-06-27T02:26:00.411Z,0.00
2018-06-27T02:27:00.639Z,0.00
2018-06-27T02:28:00.866Z,0.00
2018-06-27T02:29:01.099Z,0.00
2018-06-27T02:30:01.328Z,0.00
2018-06-27T02:31:01.557Z,0.00
2018-06-27T02:32:01.785Z,0.00
2018-06-27T02:33:02.014Z,0.00
2018-06-27T02:34:02.259Z,0.00
2018-06-27T02:35:02.474Z,0.00
2018-06-27T02:36:02.700Z,0.00
2018-06-27T02:37:02.932Z,0.00
2018-06-27T02:38:03.163Z,0.00
2018-06-27T02:39:03.388Z,0.00
2018-06-27T02:40:03.619Z,0.00
2018-06-27T02:41:03.848Z,0.00
2018-06-27T02:42:04.072Z,0.00
2018-06-27T02:43:04.301Z,0.00
2018-06-27T02:44:04.529Z,0.00
2018-06-27T02:45:04.761Z,0.00
2018-06-27T02:46:04.992Z,0.00
2018-06-27T02:47:05.221Z,0.00
2018-06-27T02:48:05.459Z,0.00
2018-06-27T02:49:05.683Z,0.00
2018-06-27T02:50:05.985Z,0.00
2018-06-27T02:51:06.144Z,0.00
2018-06-27T02:52:06.372Z,0.00
2018-06-27T02:53:06.608Z,0.00
2018-06-27T02:54:06.836Z,0.00
2018-06-27T02:55:07.062Z,0.00
2018-06-27T02:56:07.295Z,0.00
2018-06-27T02:57:07.521Z,5.63
2018-06-27T02:58:07.751Z,5.63
2018-06-27T02:59:07.979Z,5.63
2018-06-27T03:00:08.211Z,5.63
2018-06-27T03:01:08.441Z,5.63
2018-06-27T03:02:08.670Z,5.63
2018-06-27T03:03:08.899Z,5.63
2018-06-27T03:04:09.124Z,11.25
2018-06-27T03:05:09.353Z,11.25
2018-06-27T03:06:09.578Z,11.25
2018-06-27T03:07:09.809Z,11.25
2018-06-27T03:08:10.038Z,11.25
2018-06-27T03:09:10.268Z,16.88
2018-06-27T03:10:10.496Z,16.88
2018-06-27T03:11:10.725Z,16.88
2018-06-27T03:12:10.961Z,16.88
2018-06-27T03:13:11.193Z,22.50
2018-06-27T03:14:11.418Z,22.50
2018-06-27T03:15:11.651Z,22.50
2018-06-27T03:16:11.883Z,28.13
2018-06-27T03:17:12.106Z,28.13
2018-06-27T03:18:12.338Z,28.13
2018-06-27T03:19:12.572Z,33.75
2018-06-27T03:20:12.830Z,33.75
2018-06-27T03:21:13.043Z,39.38
2018-06-27T03:22:13.244Z,39.38
2018-06-27T03:23:13.471Z,45.00
2018-06-27T03:24:13.702Z,45.00
2018-06-27T03:25:13.932Z,50.63
2018-06-27T03:26:14.153Z,56.25
2018-06-27T03:27:14.385Z,56.25
2018-06-27T03:28:14.618Z,61.88
2018-06-27T03:29:14.843Z,61.88
2018-06-27T03:30:15.073Z,67.50
2018-06-27T03:31:15.301Z,67.50
2018-06-27T03:32:15.529Z,67.50
2018-06-27T03:33:15.759Z,73.13
2018-06-27T03:34:15.985Z,73.13
2018-06-27T03:35:16.215Z,73.13
2018-06-27T03:36:16.444Z,78.75
2018-06-27T03:37:16.673Z,78.75
2018-06-27T03:38:16.909Z,78.75
2018-06-27T03:39:17.130Z,78.75
2018-06-27T03:40:17.362Z,78.75
2018-06-27T03:41:17.588Z,84.38
2018-06-27T03:42:17.816Z,84.38
2018-06-27T03:43:18.047Z,84.38
2018-06-27T03:44:18.277Z,90.00
2018-06-27T03:45:18.505Z,84.38
2018-06-27T03:46:18.733Z,90.00
2018-06-27T03:47:18.964Z,101.25
2018-06-27T03:48:19.194Z,112.50
2018-06-27T03:49:19.421Z,118.13
2018-06-27T03:50:19.655Z,118.13
2018-06-27T03:51:19.879Z,118.13
2018-06-27T03:52:20.113Z,118.13
2018-06-27T03:53:20.343Z,118.13
2018-06-27T03:54:20.576Z,118.13
2018-06-27T03:55:20.806Z,123.75
2018-06-27T03:56:21.038Z,129.38
2018-06-27T03:57:21.269Z,135.00
2018-06-27T03:58:21.501Z,140.63
2018-06-27T03:59:21.730Z,140.63
2018-06-27T04:00:21.960Z,157.50
2018-06-27T04:01:22.184Z,157.50
2018-06-27T04:02:22.414Z,163.13
2018-06-27T04:03:22.645Z,180.00
2018-06-27T04:04:22.875Z,236.25
2018-06-27T04:05:23.100Z,281.25
2018-06-27T04:06:23.339Z,258.75
2018-06-27T04:07:23.564Z,393.75
2018-06-27T04:08:23.792Z,495.00
2018-06-27T04:09:24.021Z,675.00
2018-06-27T04:10:24.250Z,630.00
2018-06-27T04:11:24.482Z,433.13
2018-06-27T04:12:24.713Z,495.00
2018-06-27T04:13:25.047Z,421.88
2018-06-27T04:14:25.221Z,393.75
2018-06-27T04:15:25.400Z,230.63
2018-06-27T04:16:25.631Z,230.63
2018-06-27T04:17:25.860Z,230.63
2018-06-27T04:18:26.093Z,247.50
2018-06-27T04:19:26.322Z,253.13
2018-06-27T04:20:26.553Z,258.75
2018-06-27T04:21:26.788Z,270.00
2018-06-27T04:22:27.015Z,281.25
2018-06-27T04:23:27.247Z,292.50
2018-06-27T04:24:27.477Z,298.13
2018-06-27T04:25:27.708Z,303.75
2018-06-27T04:26:27.939Z,315.00
2018-06-27T04:27:28.170Z,343.13
2018-06-27T04:28:28.397Z,348.75
2018-06-27T04:29:28.627Z,348.75
2018-06-27T04:30:28.855Z,337.50
2018-06-27T04:31:29.083Z,326.25
2018-06-27T04:32:29.312Z,326.25
2018-06-27T04:33:29.541Z,331.88
2018-06-27T04:34:29.774Z,337.50
2018-06-27T04:35:30.007Z,343.13
2018-06-27T04:36:30.234Z,337.50
2018-06-27T04:37:30.465Z,348.75
2018-06-27T04:38:30.697Z,365.63
2018-06-27T04:39:30.923Z,405.00
2018-06-27T04:40:31.159Z,551.25
2018-06-27T04:41:31.386Z,680.63
2018-06-27T04:42:31.614Z,1181.25
2018-06-27T04:43:31.842Z,1400.63
2018-06-27T04:44:32.075Z,1361.25
2018-06-27T04:45:32.306Z,1423.13
2018-06-27T04:46:32.537Z,1462.50
2018-06-27T04:47:32.767Z,1473.75
2018-06-27T04:48:33.000Z,1513.13
2018-06-27T04:49:33.262Z,1513.13
2018-06-27T04:50:33.472Z,1546.88
2018-06-27T04:51:33.696Z,1558.13
2018-06-27T04:52:33.922Z,1586.25
2018-06-27T04:53:34.152Z,1597.50
2018-06-27T04:54:34.386Z,1597.50
2018-06-27T04:55:34.617Z,1620.00
2018-06-27T04:56:34.849Z,1620.00
2018-06-27T04:57:35.085Z,1631.25
2018-06-27T04:58:35.320Z,1631.25
2018-06-27T04:59:35.559Z,1636.88
2018-06-27T05:00:35.793Z,1625.63
2018-06-27T05:01:36.082Z,1631.25
2018-06-27T05:02:36.265Z,1569.38
2018-06-27T05:03:36.498Z,1659.38
2018-06-27T05:04:36.735Z,1659.38
2018-06-27T05:05:36.973Z,1665.00
2018-06-27T05:06:37.207Z,1659.38
2018-06-27T05:07:37.445Z,1665.00
2018-06-27T05:08:37.684Z,1687.50
2018-06-27T05:09:37.917Z,1698.75
2018-06-27T05:10:38.152Z,1681.88
2018-06-27T05:11:38.409Z,1676.25
2018-06-27T05:12:38.628Z,1698.75
2018-06-27T05:13:38.868Z,1693.13
2018-06-27T05:14:39.107Z,1670.63
2018-06-27T05:15:39.343Z,1670.63
2018-06-27T05:16:39.578Z,1687.50
2018-06-27T05:17:39.820Z,1665.00
2018-06-27T05:18:40.059Z,1665.00
2018-06-27T05:19:40.294Z,1631.25
2018-06-27T05:20:40.530Z,1614.38
2018-06-27T05:21:40.781Z,1608.75
2018-06-27T05:22:41.001Z,1591.88
2018-06-27T05:23:41.243Z,1636.88
2018-06-27T05:24:41.482Z,1597.50
2018-06-27T05:25:41.715Z,1642.50
2018-06-27T05:26:41.954Z,1659.38
2018-06-27T05:27:42.296Z,1653.75
2018-06-27T05:28:42.436Z,1648.13
2018-06-27T05:29:42.669Z,1631.25
2018-06-27T05:30:42.907Z,1636.88
2018-06-27T05:31:43.145Z,1608.75
2018-06-27T05:32:43.384Z,1631.25
2018-06-27T05:33:43.625Z,1591.88
2018-06-27T05:34:43.862Z,1586.25
2018-06-27T05:35:44.102Z,1541.25
2018-06-27T05:36:44.342Z,1580.63
2018-06-27T05:37:44.580Z,1569.38
2018-06-27T05:38:44.820Z,1569.38
2018-06-27T05:39:45.057Z,1586.25
2018-06-27T05:40:45.300Z,1541.25
2018-06-27T05:41:45.538Z,1636.88
2018-06-27T05:42:45.782Z,1625.63
2018-06-27T05:43:46.018Z,1659.38
2018-06-27T05:44:46.257Z,1642.50
2018-06-27T05:45:46.502Z,1631.25
2018-06-27T05:46:46.738Z,1575.00
2018-06-27T05:47:46.975Z,1648.13
2018-06-27T05:48:47.221Z,1620.00
2018-06-27T05:49:47.458Z,1642.50
2018-06-27T05:50:47.698Z,1625.63
2018-06-27T05:51:47.939Z,1620.00
2018-06-27T05:52:48.177Z,1608.75
2018-06-27T05:53:48.414Z,1608.75
2018-06-27T05:54:48.653Z,1603.13
2018-06-27T05:55:48.892Z,1608.75
2018-06-27T05:56:49.134Z,1597.50
2018-06-27T05:57:49.372Z,1591.88
2018-06-27T05:58:49.615Z,1586.25
2018-06-27T05:59:49.852Z,1558.13
2018-06-27T06:00:50.094Z,1541.25
2018-06-27T06:01:50.337Z,1541.25
2018-06-27T06:02:50.578Z,1530.00
2018-06-27T06:03:50.822Z,1530.00
2018-06-27T06:04:51.060Z,1524.38
2018-06-27T06:05:51.301Z,1518.75
2018-06-27T06:06:51.538Z,1507.50
2018-06-27T06:07:51.776Z,1490.63
2018-06-27T06:08:52.017Z,1496.25
2018-06-27T06:09:52.259Z,1485.00
2018-06-27T06:10:52.498Z,1479.38
2018-06-27T06:11:52.740Z,1468.13
2018-06-27T06:12:53.023Z,1456.88
2018-06-27T06:13:53.221Z,1434.38
2018-06-27T06:14:53.461Z,1428.75
2018-06-27T06:15:53.700Z,1411.88
2018-06-27T06:16:53.940Z,1395.00
2018-06-27T06:17:54.179Z,1389.38
2018-06-27T06:18:54.422Z,1383.75
2018-06-27T06:19:54.663Z,1372.50
2018-06-27T06:20:54.903Z,1361.25
2018-06-27T06:21:55.145Z,1344.38
2018-06-27T06:22:55.382Z,1321.88
2018-06-27T06:23:55.624Z,1316.25
2018-06-27T06:24:55.866Z,1305.00
2018-06-27T06:25:56.106Z,1282.50
2018-06-27T06:26:56.345Z,1282.50
2018-06-27T06:27:56.583Z,1260.00
2018-06-27T06:28:56.821Z,1260.00
2018-06-27T06:29:57.064Z,1237.50
2018-06-27T06:30:57.305Z,1231.88
2018-06-27T06:31:57.542Z,1226.25
2018-06-27T06:32:57.779Z,1215.00
2018-06-27T06:33:58.020Z,1203.75
2018-06-27T06:34:58.260Z,1181.25
2018-06-27T06:35:58.502Z,1164.38
2018-06-27T06:36:58.741Z,1147.50
2018-06-27T06:37:58.983Z,1130.63
2018-06-27T06:38:59.227Z,1119.38
2018-06-27T06:39:59.467Z,1096.88
2018-06-27T06:40:59.710Z,1085.63
2018-06-27T06:41:59.962Z,1080.00
2018-06-27T06:43:00.174Z,1068.75
2018-06-27T06:44:00.410Z,1046.25
2018-06-27T06:45:00.656Z,1040.63
2018-06-27T06:46:00.919Z,1023.75
2018-06-27T06:47:01.131Z,1012.50
2018-06-27T06:48:01.371Z,995.63
2018-06-27T06:49:01.609Z,984.38
2018-06-27T06:50:01.858Z,967.50
2018-06-27T06:51:02.088Z,950.63
2018-06-27T06:52:02.330Z,933.75
2018-06-27T06:53:02.565Z,900.00
2018-06-27T06:54:02.810Z,883.13
2018-06-27T06:55:03.048Z,871.88
2018-06-27T06:56:03.291Z,855.00
2018-06-27T06:57:03.529Z,838.13
2018-06-27T06:58:03.769Z,821.25
2018-06-27T06:59:04.009Z,798.75
2018-06-27T07:00:04.247Z,776.25
2018-06-27T07:01:04.485Z,765.00
2018-06-27T07:02:04.725Z,748.13
2018-06-27T07:03:04.964Z,742.50
2018-06-27T07:04:05.217Z,742.50
2018-06-27T07:05:05.440Z,731.25
2018-06-27T07:06:05.677Z,720.00
2018-06-27T07:07:05.917Z,680.63
2018-06-27T07:08:06.151Z,590.63
2018-06-27T07:09:06.389Z,534.38
2018-06-27T07:10:06.626Z,528.75
2018-06-27T07:11:06.876Z,534.38
2018-06-27T07:12:07.107Z,523.13
2018-06-27T07:13:07.342Z,517.50
2018-06-27T07:14:07.581Z,523.13
2018-06-27T07:15:07.817Z,523.13
2018-06-27T07:16:08.055Z,517.50
2018-06-27T07:17:08.293Z,517.50
2018-06-27T07:18:08.533Z,511.88
2018-06-27T07:19:08.778Z,517.50
2018-06-27T07:20:09.012Z,511.88
2018-06-27T07:21:09.254Z,511.88
2018-06-27T07:22:09.489Z,511.88
2018-06-27T07:23:09.719Z,517.50
2018-06-27T07:24:09.954Z,517.50
2018-06-27T07:25:10.192Z,517.50
2018-06-27T07:26:10.432Z,517.50
2018-06-27T07:27:10.665Z,511.88
2018-06-27T07:28:10.901Z,511.88
2018-06-27T07:29:11.133Z,511.88
2018-06-27T07:30:11.376Z,506.25
2018-06-27T07:31:11.603Z,506.25
2018-06-27T07:32:11.840Z,500.63
2018-06-27T07:33:12.072Z,506.25
2018-06-27T07:34:12.304Z,500.63
2018-06-27T07:35:12.539Z,500.63
2018-06-27T07:36:12.773Z,500.63
2018-06-27T07:37:13.012Z,500.63
2018-06-27T07:38:13.247Z,500.63
2018-06-27T07:39:13.477Z,500.63
2018-06-27T07:40:13.712Z,500.63
2018-06-27T07:41:13.947Z,506.25
2018-06-27T07:42:14.184Z,500.63
2018-06-27T07:43:14.415Z,500.63
2018-06-27T07:44:14.655Z,500.63
2018-06-27T07:45:14.885Z,500.63
2018-06-27T07:46:15.117Z,500.63
2018-06-27T07:47:15.347Z,500.63
2018-06-27T07:48:15.585Z,500.63
2018-06-27T07:49:15.822Z,500.63
2018-06-27T07:50:16.057Z,511.88
2018-06-27T07:51:16.291Z,506.25
2018-06-27T07:52:16.525Z,506.25
2018-06-27T07:53:16.760Z,506.25
2018-06-27T07:54:17.000Z,506.25
2018-06-27T07:55:17.262Z,506.25
2018-06-27T07:56:17.485Z,523.13
2018-06-27T07:57:17.738Z,511.88
2018-06-27T07:58:17.980Z,500.63
2018-06-27T07:59:18.206Z,500.63
2018-06-27T08:00:18.446Z,511.88
2018-06-27T08:01:18.673Z,506.25
2018-06-27T08:02:18.911Z,511.88
2018-06-27T08:03:19.138Z,506.25
2018-06-27T08:04:19.369Z,517.50
2018-06-27T08:05:19.603Z,517.50
2018-06-27T08:06:19.836Z,506.25
2018-06-27T08:07:20.105Z,511.88
2018-06-27T08:08:20.300Z,511.88
2018-06-27T08:09:20.536Z,500.63
2018-06-27T08:10:20.769Z,517.50
2018-06-27T08:11:21.004Z,511.88
2018-06-27T08:12:21.255Z,511.88
2018-06-27T08:13:21.474Z,523.13
2018-06-27T08:14:21.702Z,511.88
2018-06-27T08:15:21.931Z,511.88
2018-06-27T08:16:22.166Z,511.88
2018-06-27T08:17:22.403Z,506.25
2018-06-27T08:18:22.647Z,500.63
2018-06-27T08:19:22.865Z,495.00
2018-06-27T08:20:23.101Z,483.75
2018-06-27T08:21:23.334Z,495.00
2018-06-27T08:22:23.569Z,483.75
2018-06-27T08:23:23.806Z,489.38
2018-06-27T08:24:24.031Z,478.13
2018-06-27T08:25:24.268Z,495.00
2018-06-27T08:26:24.613Z,495.00
2018-06-27T08:27:24.737Z,489.38
2018-06-27T08:28:24.970Z,466.88
2018-06-27T08:29:25.206Z,478.13
2018-06-27T08:30:25.438Z,478.13
2018-06-27T08:31:25.670Z,478.13
2018-06-27T08:32:25.942Z,472.50
2018-06-27T08:33:26.137Z,483.75
2018-06-27T08:34:26.368Z,472.50
2018-06-27T08:35:26.605Z,461.25
2018-06-27T08:36:26.835Z,461.25
2018-06-27T08:37:27.068Z,461.25
2018-06-27T08:38:27.302Z,461.25
2018-06-27T08:39:27.537Z,455.63
2018-06-27T08:40:27.772Z,455.63
2018-06-27T08:41:28.008Z,455.63
2018-06-27T08:42:28.242Z,455.63
2018-06-27T08:43:28.478Z,455.63
2018-06-27T08:44:28.762Z,455.63
2018-06-27T08:45:28.939Z,450.00
2018-06-27T08:46:29.181Z,450.00
2018-06-27T08:47:29.415Z,444.38
2018-06-27T08:48:29.653Z,450.00
2018-06-27T08:49:29.906Z,461.25
2018-06-27T08:50:30.113Z,461.25
2018-06-27T08:51:30.349Z,455.63
2018-06-27T08:52:30.579Z,455.63
2018-06-27T08:53:30.812Z,466.88
2018-06-27T08:54:31.047Z,466.88
2018-06-27T08:55:31.279Z,461.25
2018-06-27T08:56:31.512Z,461.25
2018-06-27T08:57:31.745Z,461.25
2018-06-27T08:58:31.982Z,461.25
2018-06-27T08:59:32.219Z,461.25
2018-06-27T09:00:32.452Z,466.88
2018-06-27T09:01:32.686Z,466.88
2018-06-27T09:02:32.924Z,466.88
2018-06-27T09:03:33.152Z,472.50
2018-06-27T09:04:33.379Z,466.88
2018-06-27T09:05:33.612Z,466.88
2018-06-27T09:06:33.845Z,433.13
2018-06-27T09:07:34.080Z,388.13
2018-06-27T09:08:34.328Z,399.38
2018-06-27T09:09:34.547Z,478.13
2018-06-27T09:10:34.782Z,478.13
2018-06-27T09:11:35.014Z,478.13
2018-06-27T09:12:35.252Z,483.75
2018-06-27T09:13:35.484Z,483.75
2018-06-27T09:14:35.721Z,483.75
2018-06-27T09:15:35.958Z,483.75
2018-06-27T09:16:36.195Z,478.13
2018-06-27T09:17:36.423Z,478.13
2018-06-27T09:18:36.692Z,483.75
2018-06-27T09:19:36.907Z,489.38
2018-06-27T09:20:37.142Z,495.00
2018-06-27T09:21:37.374Z,500.63
2018-06-27T09:22:37.610Z,495.00
2018-06-27T09:23:37.843Z,320.63
2018-06-27T09:24:38.077Z,326.25
2018-06-27T09:25:38.314Z,500.63
2018-06-27T09:26:38.543Z,506.25
2018-06-27T09:27:38.783Z,511.88
2018-06-27T09:28:39.012Z,511.88
2018-06-27T09:29:39.259Z,343.13
2018-06-27T09:30:39.495Z,337.50
2018-06-27T09:31:39.712Z,343.13
2018-06-27T09:32:39.946Z,523.13
2018-06-27T09:33:40.177Z,354.38
2018-06-27T09:34:40.420Z,331.88
2018-06-27T09:35:40.651Z,348.75
2018-06-27T09:36:40.884Z,523.13
2018-06-27T09:37:41.119Z,450.00
2018-06-27T09:38:41.350Z,343.13
2018-06-27T09:39:41.584Z,354.38
2018-06-27T09:40:41.813Z,528.75
2018-06-27T09:41:42.038Z,534.38
2018-06-27T09:42:42.288Z,534.38
2018-06-27T09:43:42.520Z,388.13
2018-06-27T09:44:42.751Z,545.63
2018-06-27T09:45:42.983Z,461.25
2018-06-27T09:46:43.215Z,556.88
2018-06-27T09:47:43.452Z,579.38
2018-06-27T09:48:43.681Z,506.25
2018-06-27T09:49:43.913Z,596.25
2018-06-27T09:50:44.142Z,579.38
2018-06-27T09:51:44.380Z,556.88
2018-06-27T09:52:44.614Z,399.38
2018-06-27T09:53:44.851Z,393.75
2018-06-27T09:54:45.083Z,545.63
2018-06-27T09:55:45.317Z,506.25
2018-06-27T09:56:45.560Z,348.75
2018-06-27T09:57:45.793Z,506.25
2018-06-27T09:58:46.052Z,500.63
2018-06-27T09:59:46.258Z,450.00
2018-06-27T10:00:46.486Z,466.88
2018-06-27T10:01:46.722Z,478.13
2018-06-27T10:02:46.964Z,472.50
2018-06-27T10:03:47.190Z,472.50
2018-06-27T10:04:47.414Z,478.13
2018-06-27T10:05:47.652Z,483.75
2018-06-27T10:06:47.884Z,495.00
2018-06-27T10:07:48.131Z,500.63
2018-06-27T10:08:48.351Z,483.75
2018-06-27T10:09:48.585Z,478.13
2018-06-27T10:10:48.818Z,483.75
2018-06-27T10:11:49.060Z,472.50
2018-06-27T10:12:49.291Z,478.13
2018-06-27T10:13:49.526Z,489.38
2018-06-27T10:14:49.758Z,506.25
2018-06-27T10:15:49.994Z,528.75
2018-06-27T10:16:50.235Z,545.63
2018-06-27T10:17:50.465Z,545.63
2018-06-27T10:18:50.700Z,523.13
2018-06-27T10:19:50.937Z,483.75
2018-06-27T10:20:51.170Z,309.38
2018-06-27T10:21:51.407Z,472.50
2018-06-27T10:22:51.647Z,343.13
2018-06-27T10:23:51.881Z,466.88
2018-06-27T10:24:52.119Z,466.88
2018-06-27T10:25:52.351Z,466.88
2018-06-27T10:26:52.586Z,483.75
2018-06-27T10:27:52.825Z,489.38
2018-06-27T10:28:53.056Z,489.38
2018-06-27T10:29:53.294Z,495.00
2018-06-27T10:30:53.527Z,382.50
2018-06-27T10:31:53.761Z,376.88
2018-06-27T10:32:53.994Z,517.50
2018-06-27T10:33:54.224Z,506.25
2018-06-27T10:34:54.489Z,337.50
2018-06-27T10:35:54.691Z,303.75
2018-06-27T10:36:54.931Z,472.50
2018-06-27T10:37:55.168Z,466.88
2018-06-27T10:38:55.399Z,466.88
2018-06-27T10:39:55.633Z,461.25
2018-06-27T10:40:55.870Z,455.63
2018-06-27T10:41:56.104Z,461.25
2018-06-27T10:42:56.338Z,455.63
2018-06-27T10:43:56.620Z,466.88
2018-06-27T10:44:56.813Z,483.75
2018-06-27T10:45:57.048Z,500.63
2018-06-27T10:46:57.280Z,528.75
2018-06-27T10:47:57.519Z,438.75
2018-06-27T10:48:57.749Z,556.88
2018-06-27T10:49:57.982Z,573.75
2018-06-27T10:50:58.221Z,601.88
2018-06-27T10:51:58.454Z,607.50
2018-06-27T10:52:58.688Z,585.00
2018-06-27T10:53:58.920Z,551.25
2018-06-27T10:54:59.157Z,517.50
2018-06-27T10:55:59.389Z,489.38
2018-06-27T10:56:59.626Z,466.88
2018-06-27T10:57:59.860Z,472.50
2018-06-27T10:59:00.094Z,461.25
2018-06-27T11:00:00.331Z,466.88
2018-06-27T11:01:00.569Z,483.75
2018-06-27T11:02:00.805Z,489.38
2018-06-27T11:03:01.045Z,495.00
2018-06-27T11:04:01.280Z,489.38
2018-06-27T11:05:01.515Z,489.38
2018-06-27T11:06:01.749Z,393.75
2018-06-27T11:07:01.984Z,466.88
2018-06-27T11:08:02.222Z,483.75
2018-06-27T11:09:02.453Z,483.75
2018-06-27T11:10:02.687Z,348.75
2018-06-27T11:11:02.924Z,450.00
2018-06-27T11:12:03.158Z,478.13
2018-06-27T11:13:03.393Z,478.13
2018-06-27T11:14:03.636Z,326.25
2018-06-27T11:15:03.865Z,466.88
2018-06-27T11:16:04.104Z,461.25
2018-06-27T11:17:04.336Z,455.63
2018-06-27T11:18:04.570Z,450.00
2018-06-27T11:19:04.808Z,444.38
2018-06-27T11:20:05.048Z,450.00
2018-06-27T11:21:05.282Z,461.25
2018-06-27T11:22:05.519Z,489.38
2018-06-27T11:23:05.751Z,500.63
2018-06-27T11:24:05.986Z,500.63
2018-06-27T11:25:06.222Z,495.00
2018-06-27T11:26:06.462Z,495.00
2018-06-27T11:27:06.694Z,489.38
2018-06-27T11:28:06.931Z,478.13
2018-06-27T11:29:07.166Z,478.13
2018-06-27T11:30:07.397Z,337.50
2018-06-27T11:31:07.635Z,483.75
2018-06-27T11:32:07.868Z,343.13
2018-06-27T11:33:08.104Z,376.88
2018-06-27T11:34:08.339Z,489.38
2018-06-27T11:35:08.582Z,489.38
2018-06-27T11:36:08.814Z,489.38
2018-06-27T11:37:09.048Z,495.00
2018-06-27T11:38:09.284Z,523.13
2018-06-27T11:39:09.515Z,376.88
2018-06-27T11:40:09.756Z,540.00
2018-06-27T11:41:09.996Z,365.63
2018-06-27T11:42:10.232Z,354.38
2018-06-27T11:43:10.487Z,354.38
2018-06-27T11:44:10.705Z,360.00
2018-06-27T11:45:10.943Z,371.25
2018-06-27T11:46:11.176Z,388.13
2018-06-27T11:47:11.410Z,405.00
2018-06-27T11:48:11.646Z,450.00
2018-06-27T11:49:11.884Z,556.88
2018-06-27T11:50:12.121Z,556.88
2018-06-27T11:51:12.355Z,551.25
2018-06-27T11:52:12.590Z,534.38
2018-06-27T11:53:12.837Z,540.00
2018-06-27T11:54:13.072Z,540.00
2018-06-27T11:55:13.297Z,500.63
2018-06-27T11:56:13.530Z,523.13
2018-06-27T11:57:13.762Z,360.00
2018-06-27T11:58:13.999Z,371.25
2018-06-27T11:59:14.234Z,545.63
2018-06-27T12:00:14.469Z,562.50
2018-06-27T12:01:14.709Z,573.75
2018-06-27T12:02:14.943Z,579.38
2018-06-27T12:03:15.176Z,573.75
2018-06-27T12:04:15.412Z,551.25
2018-06-27T12:05:15.647Z,534.38
2018-06-27T12:06:15.882Z,534.38
2018-06-27T12:07:16.117Z,393.75
2018-06-27T12:08:16.353Z,360.00
2018-06-27T12:09:16.588Z,337.50
2018-06-27T12:10:16.818Z,360.00
2018-06-27T12:11:17.057Z,337.50
2018-06-27T12:12:17.291Z,500.63
2018-06-27T12:13:17.533Z,506.25
2018-06-27T12:14:17.762Z,511.88
2018-06-27T12:15:18.000Z,506.25
2018-06-27T12:16:18.237Z,506.25
2018-06-27T12:17:18.469Z,506.25
2018-06-27T12:18:18.710Z,500.63
2018-06-27T12:19:18.945Z,506.25
2018-06-27T12:20:19.210Z,511.88
2018-06-27T12:21:19.413Z,534.38
2018-06-27T12:22:19.647Z,540.00
2018-06-27T12:23:19.880Z,534.38
2018-06-27T12:24:20.121Z,500.63
2018-06-27T12:25:20.351Z,348.75
2018-06-27T12:26:20.592Z,483.75
2018-06-27T12:27:20.821Z,483.75
2018-06-27T12:28:21.056Z,472.50
2018-06-27T12:29:21.294Z,472.50
2018-06-27T12:30:21.531Z,388.13
2018-06-27T12:31:21.766Z,416.25
2018-06-27T12:32:22.013Z,455.63
2018-06-27T12:33:22.239Z,461.25
2018-06-27T12:34:22.473Z,466.88
2018-06-27T12:35:22.709Z,472.50
2018-06-27T12:36:22.946Z,478.13
2018-06-27T12:37:23.185Z,483.75
2018-06-27T12:38:23.420Z,489.38
2018-06-27T12:39:23.656Z,455.63
2018-06-27T12:40:23.890Z,455.63